»·PEaware :: N800DW TLPL-TNCM

N800DW :: TLPL-TNCM

FLIGHT INFORMATION

Flight Status: Arrived
Operator: Privately registered:
United States
More flights under this callsign
Pilot: Scott L. (17677)
Aircraft: Unknown
(EPIC)
More flights by this aircraft type
Origin: TLPL Hewanorra Intl
Saint Lucia
Destination: TNCM Princess Juliana Intl
Netherlands Antilles
More flights between these airports :: More routes between these airports
Route: KISES A324 FOF UA312 PPR A517 TIKAL
File this flight plan on PilotEdge
Remarks:
Altitude:
(Current/Filed)
12,000ft
Speed:
(Current/Filed)
280kts
Departed: 15-Apr-18 06:58 AM
Arrived: 15-Apr-18 07:48 AM
Distance/Time
Traveled:
287nm/0:50
Distance/Time
To Go:
Arrived

Flight Plot

Page will automatically refresh every two minutes.

Flight plan parsing failed; only flown route is shown


Map Options




Map Legend


Flown Route
Filed Route
Departure Airport
Arrival Airport
Navaid (VOR, NDB)
Fix

Horizontal Profiles

Position Reports

Time Latitude Longitude Heading Altitude Ground
Speed
15-Apr-18 06:54 13.734515 -60.954053 170 30ft 5kts
15-Apr-18 06:55 13.733184 -60.958470 264 35ft 35kts
15-Apr-18 06:56 13.733238 -60.964947 129 28ft 9kts
15-Apr-18 06:57 13.752335 -60.934834 18 668ft 248kts
15-Apr-18 06:58 13.818812 -60.959878 340 4040ft 245kts
15-Apr-18 06:59 13.875913 -60.973988 354 8775ft 221kts
15-Apr-18 07:00 13.937360 -60.981029 357 12591ft 231kts
15-Apr-18 07:01 14.002102 -60.986586 358 15782ft 241kts
15-Apr-18 07:02 14.070324 -60.992020 358 18015ft 265kts
15-Apr-18 07:03 14.151561 -60.998398 358 18039ft 315kts
15-Apr-18 07:04 14.240831 -61.004031 359 18037ft 326kts
15-Apr-18 07:05 14.331913 -61.008952 359 18036ft 329kts
15-Apr-18 07:06 14.423344 -61.013862 359 18036ft 330kts
15-Apr-18 07:07 14.514635 -61.018766 359 18036ft 330kts
15-Apr-18 07:08 14.605579 -61.028557 347 18038ft 333kts
15-Apr-18 07:09 14.694468 -61.054769 345 18036ft 333kts
15-Apr-18 07:10 14.783333 -61.081940 345 18036ft 333kts
15-Apr-18 07:11 16.237132 -61.531359 345 18056ft 333kts
15-Apr-18 07:12 16.308951 -61.592338 315 18039ft 341kts
15-Apr-18 07:13 16.372917 -61.665246 313 18035ft 342kts
15-Apr-18 07:14 16.436320 -61.738784 313 18035ft 342kts
15-Apr-18 07:15 16.499593 -61.812347 313 18035ft 342kts
15-Apr-18 07:16 16.562936 -61.886082 313 18036ft 342kts
15-Apr-18 07:17 16.626274 -61.959883 313 18035ft 342kts
15-Apr-18 07:18 16.689578 -62.033709 313 18036ft 342kts
15-Apr-18 07:19 16.752914 -62.107651 313 18060ft 341kts
15-Apr-18 07:20 16.816075 -62.181474 313 18063ft 341kts
15-Apr-18 07:21 16.879108 -62.255222 313 18064ft 341kts
15-Apr-18 07:22 16.942444 -62.329411 313 18064ft 342kts
15-Apr-18 07:23 17.005559 -62.403414 313 18064ft 342kts
15-Apr-18 07:24 17.068396 -62.477186 313 18064ft 342kts
15-Apr-18 07:25 17.131502 -62.551331 313 18066ft 342kts
15-Apr-18 07:26 17.194569 -62.625521 313 18066ft 342kts
15-Apr-18 07:27 17.254073 -62.695603 313 18062ft 342kts
15-Apr-18 07:28 17.326533 -62.758229 334 16364ft 324kts
15-Apr-18 07:29 17.401004 -62.796783 336 13361ft 286kts
15-Apr-18 07:30 17.469282 -62.832932 319 10337ft 273kts
15-Apr-18 07:31 17.519843 -62.890013 313 7342ft 265kts
15-Apr-18 07:32 17.567652 -62.947113 312 4351ft 260kts
15-Apr-18 07:33 17.605788 -62.993129 314 4086ft 157kts
15-Apr-18 07:34 17.631497 -63.024125 314 4139ft 175kts
15-Apr-18 07:35 17.668984 -63.069339 313 4130ft 225kts
15-Apr-18 07:36 17.711661 -63.120910 312 4128ft 240kts
15-Apr-18 07:37 17.755863 -63.174380 313 4128ft 244kts
15-Apr-18 07:38 17.800388 -63.228285 312 4128ft 245kts
15-Apr-18 07:39 17.857532 -63.264034 351 3362ft 262kts
15-Apr-18 07:40 17.929038 -63.281524 343 2622ft 259kts
15-Apr-18 07:41 17.983072 -63.291694 1 2616ft 147kts
15-Apr-18 07:42 18.014114 -63.275497 73 2626ft 141kts
15-Apr-18 07:43 18.023325 -63.230687 82 1818ft 184kts
15-Apr-18 07:44 18.029472 -63.188799 81 1477ft 108kts
15-Apr-18 07:45 18.033578 -63.160656 79 1026ft 92kts
15-Apr-18 07:46 18.037908 -63.130626 82 337ft 85kts
15-Apr-18 07:47 18.040504 -63.112975 38 17ft 18kts
15-Apr-18 07:48 18.042075 -63.115557 232 17ft 0kts
15-Apr-18 07:49 18.042075 -63.115557 232 17ft 0kts
15-Apr-18 07:50 18.042075 -63.115557 232 17ft 0kts
15-Apr-18 07:51 18.042075 -63.115557 232 16ft 0kts
15-Apr-18 07:52 18.042075 -63.115557 232 16ft 0kts
15-Apr-18 07:53 18.042075 -63.115557 232 16ft 0kts
15-Apr-18 07:54 18.042075 -63.115557 232 16ft 0kts
15-Apr-18 07:55 18.042075 -63.115557 232 16ft 0kts
15-Apr-18 07:56 18.042075 -63.115557 232 16ft 0kts
15-Apr-18 07:57 18.042075 -63.115557 232 16ft 0kts
15-Apr-18 07:58 18.042075 -63.115557 232 16ft 0kts
15-Apr-18 07:59 18.042075 -63.115557 232 16ft 0kts
15-Apr-18 08:00 18.042075 -63.115557 232 16ft 0kts
15-Apr-18 08:01 18.042075 -63.115557 232 16ft 0kts

Navigation Log

Ident Type
Flight plan parsing failed, navigation log unavailable